Time;durP1;ratioP1;P1;durP2;ratioP2;P2;SDS_P1;SDS_P2;PMS_P1;PMS_P2;Temp;Humidity;BMP_temperature;BMP_pressure;BME280_temperature;BME280_humidity;BME280_pressure;Samples;Min_cycle;Max_cycle;Signal;HPM_P1;HPM_P2
2024/01/15 00:00:41;;;;;;;16.80;5.38;;;;;;;1.85;100.00;100247.09;5078462;27;20135;-75
2024/01/15 00:03:06;;;;;;;11.68;5.40;;;;;;;1.80;100.00;100249.88;5092015;27;20069;-75
2024/01/15 00:05:32;;;;;;;14.93;5.32;;;;;;;1.75;100.00;100250.97;5094974;27;20035;-73
2024/01/15 00:07:57;;;;;;;13.93;4.80;;;;;;;1.70;100.00;100238.00;5091762;27;20910;-75
2024/01/15 00:10:23;;;;;;;17.50;4.93;;;;;;;1.69;100.00;100233.66;5078926;27;20036;-74
2024/01/15 00:12:49;;;;;;;8.73;4.20;;;;;;;1.60;100.00;100233.13;5097856;27;20729;-74
2024/01/15 00:15:14;;;;;;;11.05;4.10;;;;;;;1.58;100.00;100229.72;5098416;27;20049;-74
2024/01/15 00:17:40;;;;;;;11.52;3.65;;;;;;;1.55;100.00;100230.66;5099865;27;20592;-74
2024/01/15 00:20:06;;;;;;;12.07;3.45;;;;;;;1.57;100.00;100217.50;5096168;27;20668;-74
2024/01/15 00:22:32;;;;;;;13.85;3.10;;;;;;;1.51;100.00;100229.94;5095811;27;20096;-74
2024/01/15 00:24:57;;;;;;;12.00;3.38;;;;;;;1.52;100.00;100225.53;5093231;27;20066;-74
2024/01/15 00:27:23;;;;;;;15.57;2.30;;;;;;;1.42;100.00;100224.16;5084958;27;20038;-74
2024/01/15 00:29:50;;;;;;;12.75;3.50;;;;;;;1.44;100.00;100214.44;5091366;27;20025;-74
2024/01/15 00:32:16;;;;;;;17.48;3.80;;;;;;;1.40;100.00;100221.56;5095760;27;20051;-74
2024/01/15 00:34:41;;;;;;;14.23;2.75;;;;;;;1.37;100.00;100216.44;5079600;27;20462;-74
2024/01/15 00:37:07;;;;;;;9.00;2.40;;;;;;;1.40;100.00;100218.94;5104487;27;20039;-74
2024/01/15 00:39:33;;;;;;;10.15;2.65;;;;;;;1.38;100.00;100219.94;5100492;27;20039;-74
2024/01/15 00:41:58;;;;;;;14.60;2.42;;;;;;;1.39;100.00;100213.75;5097697;27;20041;-74
2024/01/15 00:44:24;;;;;;;12.38;2.58;;;;;;;1.37;100.00;100215.59;5096582;27;20465;-74
2024/01/15 00:46:50;;;;;;;8.20;2.05;;;;;;;1.34;100.00;100213.06;5089163;27;20036;-74
2024/01/15 00:49:16;;;;;;;18.00;3.15;;;;;;;1.33;100.00;100208.72;5099636;27;20111;-74
2024/01/15 00:51:41;;;;;;;7.53;2.08;;;;;;;1.21;100.00;100213.50;5099797;27;20716;-73
2024/01/15 00:54:07;;;;;;;15.38;2.72;;;;;;;1.23;100.00;100208.19;5097489;27;20036;-74
2024/01/15 00:56:32;;;;;;;11.32;2.65;;;;;;;1.25;100.00;100212.47;5103829;27;20028;-74
2024/01/15 00:58:58;;;;;;;10.18;2.75;;;;;;;1.30;100.00;100204.41;5073535;27;20123;-74
2024/01/15 01:01:23;;;;;;;15.57;2.70;;;;;;;1.24;100.00;100199.41;5096980;27;20060;-75
2024/01/15 01:03:49;;;;;;;19.50;2.95;;;;;;;1.12;100.00;100191.97;5094319;27;20041;-74
2024/01/15 01:06:14;;;;;;;14.55;2.90;;;;;;;1.17;100.00;100190.88;5094728;27;20202;-75
2024/01/15 01:08:40;;;;;;;19.23;3.00;;;;;;;1.12;100.00;100192.81;5098543;27;20038;-74
2024/01/15 01:11:06;;;;;;;14.55;2.72;;;;;;;2.16;100.00;100181.06;5100427;27;20054;-74
2024/01/15 01:13:32;;;;;;;13.02;2.80;;;;;;;2.95;100.00;100149.72;5103095;27;20043;-73
2024/01/15 01:15:58;;;;;;;8.05;2.38;;;;;;;3.07;100.00;100128.13;5082135;27;21072;-75
2024/01/15 01:18:24;;;;;;;11.40;2.65;;;;;;;3.13;100.00;100119.09;5096221;27;20029;-75
2024/01/15 01:20:49;;;;;;;13.18;2.53;;;;;;;3.18;100.00;100115.34;5091891;27;20031;-74
2024/01/15 01:23:15;;;;;;;15.02;3.08;;;;;;;3.35;100.00;100112.78;5093847;27;20036;-74
2024/01/15 01:25:40;;;;;;;19.92;3.97;;;;;;;2.46;100.00;100112.31;5094862;27;20036;-74
2024/01/15 01:28:06;;;;;;;12.15;3.10;;;;;;;3.14;100.00;100102.38;5096899;27;20032;-74
2024/01/15 01:30:31;;;;;;;12.68;3.97;;;;;;;3.01;100.00;100089.75;5100894;27;20027;-74
2024/01/15 01:32:57;;;;;;;19.33;3.30;;;;;;;3.12;100.00;100099.81;5081055;27;20102;-74
2024/01/15 01:35:23;;;;;;;15.85;3.47;;;;;;;3.06;100.00;100102.69;5081358;27;20099;-74
2024/01/15 01:37:48;;;;;;;16.05;3.53;;;;;;;3.22;100.00;100100.25;5077908;27;20043;-75
2024/01/15 01:40:14;;;;;;;19.73;3.30;;;;;;;3.12;100.00;100099.81;5094363;27;20051;-74
2024/01/15 01:42:39;;;;;;;10.65;2.83;;;;;;;2.99;100.00;100106.53;5089293;27;20086;-75
2024/01/15 01:45:05;;;;;;;16.52;3.55;;;;;;;3.03;100.00;100102.84;5081511;27;20634;-74
2024/01/15 01:47:31;;;;;;;9.85;2.90;;;;;;;3.03;100.00;100097.59;5087951;27;20151;-74
2024/01/15 01:49:57;;;;;;;18.27;3.22;;;;;;;3.06;100.00;100102.69;5102455;27;20027;-75
2024/01/15 01:52:23;;;;;;;13.63;2.75;;;;;;;3.06;100.00;100100.94;5100222;27;20040;-74
2024/01/15 01:54:50;;;;;;;18.02;3.08;;;;;;;3.06;100.00;100093.03;5098149;27;20066;-74
2024/01/15 01:57:17;;;;;;;11.85;2.63;;;;;;;3.00;100.00;100108.25;5099446;27;20043;-74
2024/01/15 01:59:42;;;;;;;17.63;3.10;;;;;;;2.97;100.00;100111.88;5091715;27;20032;-74
2024/01/15 02:02:08;;;;;;;14.65;3.30;;;;;;;3.19;100.00;100119.69;5089558;27;20492;-74
2024/01/15 02:04:36;;;;;;;14.32;3.42;;;;;;;3.15;100.00;100112.84;5103206;27;20356;-74
2024/01/15 02:07:02;;;;;;;16.90;3.53;;;;;;;2.99;100.00;100123.19;5104759;27;20035;-75
2024/01/15 02:09:28;;;;;;;18.63;4.65;;;;;;;2.99;100.00;100114.44;5097359;27;20048;-74
2024/01/15 02:11:53;;;;;;;15.85;3.60;;;;;;;3.04;100.00;100115.94;5077976;27;20266;-74
2024/01/15 02:14:19;;;;;;;14.70;3.80;;;;;;;3.14;100.00;100113.75;5102637;27;20712;-74
2024/01/15 02:16:45;;;;;;;20.30;4.32;;;;;;;3.04;100.00;100108.03;5100170;27;20028;-74
2024/01/15 02:19:18;;;;;;;15.80;4.28;;;;;;;1.83;100.00;100114.88;5093593;27;20869;-74
2024/01/15 02:21:43;;;;;;;26.20;4.38;;;;;;;1.24;100.00;100118.00;5070237;27;20035;-75
2024/01/15 02:24:09;;;;;;;12.95;5.53;;;;;;;1.15;100.00;100136.69;5099626;27;20491;-76
2024/01/15 02:26:35;;;;;;;14.85;4.55;;;;;;;1.00;100.00;100139.00;5093024;27;20921;-75
2024/01/15 02:29:01;;;;;;;16.27;5.00;;;;;;;0.91;100.00;100138.47;5075822;27;20105;-74
2024/01/15 02:31:27;;;;;;;28.95;6.22;;;;;;;0.89;100.00;100141.13;5068432;27;20040;-74
2024/01/15 02:33:53;;;;;;;18.52;4.93;;;;;;;0.88;100.00;100141.19;5098408;27;20789;-72
2024/01/15 02:36:18;;;;;;;15.60;4.72;;;;;;;0.87;100.00;100153.44;5095442;27;20024;-72
2024/01/15 02:38:44;;;;;;;17.42;4.18;;;;;;;0.84;100.00;100155.31;5096419;27;20083;-75
2024/01/15 02:41:09;;;;;;;17.92;4.10;;;;;;;0.87;100.00;100156.06;5096599;27;20052;-72
2024/01/15 02:43:35;;;;;;;18.05;4.25;;;;;;;0.82;100.00;100158.00;5097665;27;20470;-72
2024/01/15 02:46:00;;;;;;;13.73;4.20;;;;;;;0.83;100.00;100153.59;5097655;27;20040;-72
2024/01/15 02:48:26;;;;;;;22.63;5.35;;;;;;;0.84;100.00;100155.31;5091334;27;20153;-72
2024/01/15 02:50:51;;;;;;;25.88;4.47;;;;;;;0.89;100.00;100151.59;5097808;27;20047;-72
2024/01/15 02:53:17;;;;;;;20.13;3.85;;;;;;;0.90;100.00;100155.09;5094639;27;20035;-72
2024/01/15 02:55:42;;;;;;;21.63;5.15;;;;;;;0.86;100.00;100159.59;5091049;27;20976;-72
2024/01/15 02:58:07;;;;;;;25.77;4.25;;;;;;;0.87;100.00;100166.56;5087005;27;20038;-72
2024/01/15 03:00:33;;;;;;;24.02;3.97;;;;;;;0.91;100.00;100173.44;5096014;27;20031;-72
2024/01/15 03:02:58;;;;;;;17.20;4.32;;;;;;;0.91;100.00;100185.69;5091059;27;20036;-72
2024/01/15 03:05:24;;;;;;;29.42;5.10;;;;;;;0.94;100.00;100172.44;5090149;27;20203;-73
2024/01/15 03:07:49;;;;;;;27.83;4.40;;;;;;;1.06;100.00;100179.06;5090507;27;20063;-72
2024/01/15 03:10:15;;;;;;;27.73;4.63;;;;;;;0.98;100.00;100174.91;5094962;27;20146;-73
2024/01/15 03:12:40;;;;;;;21.55;3.80;;;;;;;0.98;100.00;100171.44;5094025;27;20040;-72
2024/01/15 03:15:06;;;;;;;16.08;3.85;;;;;;;0.94;100.00;100172.44;5098666;27;20028;-73
2024/01/15 03:17:32;;;;;;;22.75;3.83;;;;;;;0.94;100.00;100167.19;5053034;28;20087;-72
2024/01/15 03:19:57;;;;;;;14.38;2.95;;;;;;;0.95;100.00;100163.66;5099676;27;20036;-72
2024/01/15 03:22:22;;;;;;;16.23;3.65;;;;;;;0.93;100.00;100160.25;5093655;27;20094;-72
2024/01/15 03:24:48;;;;;;;23.10;3.90;;;;;;;0.94;100.00;100160.19;5097894;27;20097;-72
2024/01/15 03:27:14;;;;;;;23.48;3.88;;;;;;;0.88;100.00;100164.78;5099470;27;20086;-73
2024/01/15 03:29:40;;;;;;;17.40;3.25;;;;;;;0.80;100.00;100166.81;5094331;27;20036;-75
2024/01/15 03:32:06;;;;;;;14.80;2.65;;;;;;;0.80;100.00;100158.94;5094354;27;20040;-72
2024/01/15 03:34:31;;;;;;;21.05;3.95;;;;;;;0.79;100.00;100168.59;5097278;27;20044;-74
2024/01/15 03:36:57;;;;;;;13.63;3.53;;;;;;;0.69;100.00;100162.78;5067511;27;20025;-73
2024/01/15 03:39:23;;;;;;;27.73;4.47;;;;;;;0.82;100.00;100160.63;5092580;27;20110;-73
2024/01/15 03:41:48;;;;;;;21.80;3.20;;;;;;;0.81;100.00;100166.78;5068995;27;20036;-75
2024/01/15 03:44:14;;;;;;;19.23;3.80;;;;;;;0.82;100.00;100155.38;5080389;27;20032;-75
2024/01/15 03:46:39;;;;;;;18.30;3.92;;;;;;;0.78;100.00;100166.88;5081282;27;20036;-74
2024/01/15 03:49:04;;;;;;;15.93;2.72;;;;;;;0.80;100.00;100159.78;5092282;27;20037;-75
2024/01/15 03:51:30;;;;;;;17.38;3.83;;;;;;;0.76;100.00;100164.31;5101614;27;20116;-75
2024/01/15 03:53:56;;;;;;;10.98;3.13;;;;;;;0.72;100.00;100159.22;5072683;27;20524;-74
2024/01/15 03:56:21;;;;;;;26.15;3.65;;;;;;;0.76;100.00;100161.69;5089441;27;20320;-74
2024/01/15 03:58:47;;;;;;;15.60;3.15;;;;;;;0.81;100.00;100151.03;5084729;27;20041;-75
2024/01/15 04:01:12;;;;;;;15.68;3.50;;;;;;;0.91;100.00;100146.34;5084063;27;20036;-75
2024/01/15 04:03:38;;;;;;;23.98;3.60;;;;;;;0.97;100.00;100146.09;5096348;27;20024;-74
2024/01/15 04:06:04;;;;;;;12.13;3.38;;;;;;;0.96;100.00;100136.53;5085926;27;20893;-74
2024/01/15 04:08:30;;;;;;;18.40;2.60;;;;;;;0.99;100.00;100139.03;5093538;27;20064;-74
2024/01/15 04:10:56;;;;;;;18.35;2.97;;;;;;;0.93;100.00;100134.84;5092793;27;20036;-74
2024/01/15 04:13:21;;;;;;;9.52;2.33;;;;;;;0.98;100.00;100132.06;5090820;27;20572;-74
2024/01/15 04:15:47;;;;;;;14.25;2.60;;;;;;;0.99;100.00;100129.38;5072527;27;20028;-74
2024/01/15 04:18:12;;;;;;;15.32;2.80;;;;;;;1.10;100.00;100133.38;5097864;27;20456;-75
2024/01/15 04:20:38;;;;;;;19.33;3.58;;;;;;;1.10;100.00;100126.38;5098744;27;20027;-75
2024/01/15 04:23:04;;;;;;;22.10;2.65;;;;;;;1.11;100.00;100124.63;5097885;27;20858;-74
2024/01/15 04:25:30;;;;;;;12.80;2.55;;;;;;;1.11;100.00;100119.38;5101120;27;20047;-74
2024/01/15 04:27:56;;;;;;;11.32;3.15;;;;;;;1.08;100.00;100127.34;5100844;27;20066;-73
2024/01/15 04:30:21;;;;;;;12.82;2.58;;;;;;;1.01;100.00;100121.47;5099201;27;20035;-74
2024/01/15 04:32:46;;;;;;;15.18;2.25;;;;;;;1.04;100.00;100119.56;5074027;28;20931;-74
2024/01/15 04:35:12;;;;;;;20.33;3.63;;;;;;;1.04;100.00;100121.34;5094964;27;20047;-72
2024/01/15 04:37:39;;;;;;;12.93;2.53;;;;;;;1.08;100.00;100122.09;5097735;27;20032;-73
2024/01/15 04:40:05;;;;;;;20.38;3.00;;;;;;;1.04;100.00;100124.81;5082967;27;20634;-72
2024/01/15 04:42:30;;;;;;;11.80;2.83;;;;;;;1.06;100.00;100116.91;5097512;27;20039;-73
2024/01/15 04:44:56;;;;;;;20.60;2.95;;;;;;;1.09;100.00;100105.44;5095707;27;20089;-72
2024/01/15 04:47:21;;;;;;;15.30;4.00;;;;;;;1.10;100.00;100104.50;5097789;27;20040;-73
2024/01/15 04:49:48;;;;;;;20.02;3.35;;;;;;;1.05;100.00;100099.41;5097052;27;20039;-72
2024/01/15 04:52:14;;;;;;;19.08;3.90;;;;;;;1.07;100.00;100099.38;5092519;27;20096;-73
2024/01/15 04:54:40;;;;;;;15.02;3.08;;;;;;;0.99;100.00;100105.75;5098847;27;20084;-74
2024/01/15 04:57:05;;;;;;;17.77;3.92;;;;;;;0.95;100.00;100095.41;5095566;27;20517;-74
2024/01/15 04:59:31;;;;;;;24.55;4.72;;;;;;;0.91;100.00;100096.47;5099568;27;20032;-74
2024/01/15 05:01:57;;;;;;;32.22;4.88;;;;;;;0.88;100.00;100099.19;5074302;28;20473;-75
2024/01/15 05:04:24;;;;;;;31.52;4.03;;;;;;;0.86;100.00;100096.63;5095416;27;20029;-74
2024/01/15 05:06:49;;;;;;;25.92;4.88;;;;;;;0.82;100.00;100096.78;5097333;27;20028;-74
2024/01/15 05:09:15;;;;;;;14.82;4.88;;;;;;;0.78;100.00;100104.75;5102083;27;20057;-74
2024/01/15 05:11:41;;;;;;;24.10;5.30;;;;;;;0.76;100.00;100106.59;5084623;27;20041;-74
2024/01/15 05:14:06;;;;;;;17.70;4.38;;;;;;;0.82;100.00;100095.00;5099512;27;20578;-74
2024/01/15 05:16:32;;;;;;;24.73;4.80;;;;;;;0.75;100.00;100089.13;5099396;27;20047;-74
2024/01/15 05:18:57;;;;;;;23.92;4.90;;;;;;;0.83;100.00;100095.88;5100141;27;20138;-75
2024/01/15 05:21:23;;;;;;;26.60;5.63;;;;;;;0.86;100.00;100095.78;5097189;27;20475;-75
2024/01/15 05:23:48;;;;;;;28.90;6.25;;;;;;;0.78;100.00;100089.00;5094245;27;20092;-74
2024/01/15 05:26:14;;;;;;;23.13;6.40;;;;;;;0.72;100.00;100084.00;5090837;27;20043;-74
2024/01/15 05:28:42;;;;;;;30.30;8.02;;;;;;;0.68;100.00;100079.75;5095463;27;20129;-73
2024/01/15 05:31:08;;;;;;;28.08;7.63;;;;;;;0.74;100.00;100084.78;5084331;27;20035;-74
2024/01/15 05:33:34;;;;;;;26.85;7.03;;;;;;;0.76;100.00;100092.63;5095711;27;20036;-74
2024/01/15 05:35:59;;;;;;;19.23;6.35;;;;;;;0.82;100.00;100094.16;5098764;27;20036;-74
2024/01/15 05:38:25;;;;;;;20.45;5.30;;;;;;;0.97;100.00;100088.38;5064575;27;20385;-74
2024/01/15 05:40:50;;;;;;;27.67;5.43;;;;;;;1.00;100.00;100083.88;5098398;27;20819;-74
2024/01/15 05:43:16;;;;;;;21.58;5.35;;;;;;;1.03;100.00;100081.13;5094982;27;20038;-72
2024/01/15 05:45:43;;;;;;;16.45;5.90;;;;;;;1.11;100.00;100082.63;5102529;27;20572;-74
2024/01/15 05:48:08;;;;;;;25.15;5.32;;;;;;;1.00;100.00;100075.09;5094834;27;20140;-72
2024/01/15 05:50:34;;;;;;;24.77;5.43;;;;;;;1.10;100.00;100071.22;5087822;27;20401;-72
2024/01/15 05:53:00;;;;;;;17.60;5.53;;;;;;;1.14;100.00;100070.22;5080426;27;20178;-72
2024/01/15 05:55:26;;;;;;;17.83;5.55;;;;;;;1.05;100.00;100062.66;5098191;27;20120;-72
2024/01/15 05:57:51;;;;;;;17.08;5.00;;;;;;;0.98;100.00;100067.31;5079260;27;20576;-74
2024/01/15 06:00:17;;;;;;;23.10;5.88;;;;;;;0.99;100.00;100073.41;5093554;27;20064;-73
2024/01/15 06:02:42;;;;;;;18.23;5.60;;;;;;;1.03;100.00;100085.50;5082558;27;20451;-74
2024/01/15 06:05:08;;;;;;;17.90;5.20;;;;;;;1.07;100.00;100088.88;5097653;27;20031;-71
2024/01/15 06:07:35;;;;;;;22.77;6.00;;;;;;;1.11;100.00;100086.09;5091176;27;20032;-74
2024/01/15 06:10:00;;;;;;;15.57;5.78;;;;;;;1.11;100.00;100080.00;5087016;27;20043;-72
2024/01/15 06:12:27;;;;;;;21.40;6.28;;;;;;;1.13;100.00;100081.63;5093837;27;20048;-72
2024/01/15 06:14:53;;;;;;;16.83;5.57;;;;;;;1.21;100.00;100084.00;5096369;27;20376;-74
2024/01/15 06:17:18;;;;;;;15.48;6.18;;;;;;;1.24;100.00;100079.47;5096583;27;20331;-74
2024/01/15 06:19:44;;;;;;;18.38;6.32;;;;;;;1.24;100.00;100091.72;5104088;27;20031;-74
2024/01/15 06:22:09;;;;;;;19.10;7.00;;;;;;;1.24;100.00;100097.84;5084008;27;20039;-74
2024/01/15 06:24:35;;;;;;;15.18;6.10;;;;;;;1.26;100.00;100090.78;5094539;27;21591;-74
2024/01/15 06:27:00;;;;;;;19.60;6.60;;;;;;;1.34;100.00;100082.59;5092460;27;20032;-74
2024/01/15 06:29:27;;;;;;;24.73;6.40;;;;;;;1.28;100.00;100086.31;5097491;27;20036;-74
2024/01/15 06:31:53;;;;;;;16.27;6.88;;;;;;;1.27;100.00;100084.59;5095947;27;20086;-74
2024/01/15 06:34:19;;;;;;;16.50;6.80;;;;;;;1.35;100.00;100080.81;5099688;27;20125;-74
2024/01/15 06:36:44;;;;;;;17.27;6.50;;;;;;;1.37;100.00;100085.13;5103158;27;20125;-74
2024/01/15 06:39:10;;;;;;;19.58;7.03;;;;;;;1.34;100.00;100090.47;5091787;27;20055;-74
2024/01/15 06:41:41;;;;;;;21.27;6.78;;;;;;;1.29;100.00;100090.66;5075061;27;20058;-74
2024/01/15 06:44:06;;;;;;;24.15;7.30;;;;;;;1.35;100.00;100086.06;5099786;27;20032;-74
2024/01/15 06:46:32;;;;;;;18.92;6.28;;;;;;;1.37;100.00;100090.38;5094809;27;20043;-73
2024/01/15 06:48:57;;;;;;;21.75;6.90;;;;;;;1.35;100.00;100096.59;5098447;27;20032;-74
2024/01/15 06:51:23;;;;;;;18.05;6.35;;;;;;;1.35;100.00;100091.34;5099715;27;20051;-74
2024/01/15 06:53:48;;;;;;;18.75;6.55;;;;;;;1.37;100.00;100092.16;5086184;27;20035;-74
2024/01/15 06:56:14;;;;;;;15.48;6.32;;;;;;;1.27;100.00;100091.63;5092124;27;20048;-74
2024/01/15 06:58:39;;;;;;;12.88;6.55;;;;;;;1.40;100.00;100092.00;5097424;27;20042;-74
2024/01/15 07:01:05;;;;;;;23.92;7.80;;;;;;;1.32;100.00;100094.94;5078791;27;20027;-74
2024/01/15 07:03:31;;;;;;;17.38;6.38;;;;;;;1.31;100.00;100098.50;5100508;27;20047;-74
2024/01/15 07:05:56;;;;;;;20.05;7.30;;;;;;;1.20;100.00;100085.72;5086123;27;20043;-73
2024/01/15 07:08:22;;;;;;;22.55;7.78;;;;;;;1.06;100.00;100085.41;5095324;27;20040;-73
2024/01/15 07:10:47;;;;;;;23.25;7.85;;;;;;;1.10;100.00;100079.09;5102497;27;20047;-73
2024/01/15 07:13:13;;;;;;;23.67;9.15;;;;;;;1.09;100.00;100085.28;5097549;27;29924;-73
2024/01/15 07:15:38;;;;;;;23.35;9.27;;;;;;;1.10;100.00;100091.38;5104037;27;20032;-73
2024/01/15 07:18:04;;;;;;;24.45;9.90;;;;;;;1.12;100.00;100090.44;5076660;27;20942;-73
2024/01/15 07:20:29;;;;;;;21.55;8.98;;;;;;;1.11;100.00;100090.50;5085022;27;20035;-73
2024/01/15 07:22:55;;;;;;;24.55;11.18;;;;;;;1.12;100.00;100087.81;5092241;27;20040;-73
2024/01/15 07:25:20;;;;;;;27.90;11.43;;;;;;;1.14;100.00;100088.59;5064380;27;20040;-73
2024/01/15 07:27:46;;;;;;;27.38;12.90;;;;;;;1.14;100.00;100087.75;5090593;27;20036;-73
2024/01/15 07:30:13;;;;;;;32.65;13.65;;;;;;;1.09;100.00;100082.66;5077687;28;20067;-73
2024/01/15 07:32:39;;;;;;;34.45;16.80;;;;;;;1.07;100.00;100092.38;5096374;27;20147;-73
2024/01/15 07:35:05;;;;;;;44.45;18.33;;;;;;;1.09;100.00;100090.53;5089526;27;20038;-73
2024/01/15 07:37:31;;;;;;;37.97;18.90;;;;;;;1.09;100.00;100090.53;5099016;27;20033;-73
2024/01/15 07:39:56;;;;;;;40.88;19.38;;;;;;;1.13;100.00;100094.75;5091411;27;20151;-73
2024/01/15 07:42:22;;;;;;;39.15;19.40;;;;;;;1.11;100.00;100085.25;5096911;27;20035;-73
2024/01/15 07:44:47;;;;;;;42.65;21.10;;;;;;;1.15;100.00;100089.44;5092157;27;20950;-73
2024/01/15 07:47:13;;;;;;;51.10;23.30;;;;;;;1.18;100.00;100094.59;5100630;27;20024;-73
2024/01/15 07:49:39;;;;;;;47.70;23.20;;;;;;;1.18;100.00;100098.06;5088144;27;20028;-73
2024/01/15 07:52:05;;;;;;;45.67;22.70;;;;;;;1.20;100.00;100093.59;5077989;27;20765;-73
2024/01/15 07:54:31;;;;;;;41.72;23.17;;;;;;;1.23;100.00;100104.00;5086408;27;20101;-73
2024/01/15 07:56:59;;;;;;;44.35;22.80;;;;;;;1.27;100.00;100097.75;5079131;27;20040;-73
2024/01/15 07:59:25;;;;;;;39.50;22.70;;;;;;;1.30;100.00;100102.00;5098122;27;20035;-73
2024/01/15 08:01:51;;;;;;;44.47;21.73;;;;;;;1.23;100.00;100106.63;5099137;27;20041;-73
2024/01/15 08:04:17;;;;;;;40.38;20.92;;;;;;;1.37;100.00;100103.50;5102636;27;20080;-73
2024/01/15 08:06:43;;;;;;;40.92;20.98;;;;;;;1.32;100.00;100101.97;5080501;27;20036;-73
2024/01/15 08:09:08;;;;;;;38.50;20.10;;;;;;;1.33;100.00;100108.94;5102521;27;20021;-73
2024/01/15 08:11:35;;;;;;;35.47;19.38;;;;;;;1.39;100.00;100103.44;5082121;27;20053;-73
2024/01/15 08:14:00;;;;;;;33.30;18.95;;;;;;;1.33;100.00;100096.66;5101146;27;21004;-73
2024/01/15 08:16:27;;;;;;;34.50;18.17;;;;;;;1.29;100.00;100101.16;5101021;27;20040;-73
2024/01/15 08:18:53;;;;;;;34.72;19.17;;;;;;;1.29;100.00;100101.16;5080269;28;20390;-73
2024/01/15 08:21:19;;;;;;;29.23;17.08;;;;;;;1.25;100.00;100088.19;5091101;27;20176;-73
2024/01/15 08:23:44;;;;;;;27.52;14.27;;;;;;;1.14;100.00;100093.84;5099745;27;20137;-73
2024/01/15 08:26:10;;;;;;;30.27;14.50;;;;;;;1.19;100.00;100088.41;5100403;27;20036;-73
2024/01/15 08:28:36;;;;;;;29.92;14.80;;;;;;;1.27;100.00;100094.25;5102958;27;20032;-73
2024/01/15 08:31:02;;;;;;;23.60;13.55;;;;;;;1.35;100.00;100080.81;5096800;27;20046;-73
2024/01/15 08:33:28;;;;;;;27.77;16.05;;;;;;;1.34;100.00;100089.63;5101870;27;20032;-73
2024/01/15 08:35:54;;;;;;;26.10;14.60;;;;;;;1.35;100.00;100089.56;5099402;27;20962;-73
2024/01/15 08:38:20;;;;;;;28.27;14.68;;;;;;;1.30;100.00;100091.50;5094201;27;20028;-73
2024/01/15 08:40:45;;;;;;;27.45;14.40;;;;;;;1.33;100.00;100088.78;5074619;27;20948;-73
2024/01/15 08:43:11;;;;;;;26.38;13.63;;;;;;;1.41;100.00;100094.59;5079842;27;20040;-73
2024/01/15 08:45:36;;;;;;;23.33;13.20;;;;;;;1.36;100.00;100087.81;5102652;27;20032;-74
2024/01/15 08:48:03;;;;;;;24.95;12.48;;;;;;;1.39;100.00;100090.31;5100040;27;20044;-73
2024/01/15 08:50:29;;;;;;;21.70;11.88;;;;;;;1.37;100.00;100076.38;5105370;27;20122;-73
2024/01/15 08:52:55;;;;;;;19.13;11.05;;;;;;;1.37;100.00;100084.25;5068126;27;20036;-73
2024/01/15 08:55:22;;;;;;;18.10;9.57;;;;;;;1.35;100.00;100081.69;5104662;27;20028;-73
2024/01/15 08:57:48;;;;;;;16.45;8.98;;;;;;;1.36;100.00;100082.56;5095742;27;20042;-73
2024/01/15 09:00:14;;;;;;;17.98;9.63;;;;;;;1.42;100.00;100080.56;5078170;27;20035;-73
2024/01/15 09:02:40;;;;;;;19.38;8.88;;;;;;;1.44;100.00;100093.63;5100916;27;20092;-73
2024/01/15 09:05:06;;;;;;;15.23;7.60;;;;;;;1.36;100.00;100087.81;5082711;27;20061;-73
2024/01/15 09:07:32;;;;;;;11.57;7.78;;;;;;;1.38;100.00;100084.19;5095854;27;20082;-74
2024/01/15 09:09:59;;;;;;;14.75;7.72;;;;;;;1.40;100.00;100084.13;5092732;27;20151;-74
2024/01/15 09:12:27;;;;;;;13.82;7.90;;;;;;;1.53;100.00;100096.75;5082275;27;20865;-75
2024/01/15 09:14:53;;;;;;;12.52;7.18;;;;;;;1.54;100.00;100101.09;5100552;27;20039;-75
2024/01/15 09:17:21;;;;;;;11.45;7.07;;;;;;;1.50;100.00;100120.50;5097247;27;20028;-74
2024/01/15 09:19:47;;;;;;;16.63;7.20;;;;;;;1.45;100.00;100104.06;5074531;27;20024;-74
2024/01/15 09:22:14;;;;;;;15.02;6.85;;;;;;;1.35;100.00;100091.34;5101001;27;20035;-73
2024/01/15 09:24:42;;;;;;;17.75;6.80;;;;;;;1.25;100.00;100091.66;5090565;27;20135;-73
2024/01/15 09:27:07;;;;;;;13.75;6.35;;;;;;;1.27;100.00;100083.75;5077626;27;20038;-73
2024/01/15 09:29:33;;;;;;;16.15;6.22;;;;;;;1.31;100.00;100087.97;5075409;27;20603;-74
2024/01/15 09:31:59;;;;;;;9.60;5.53;;;;;;;1.32;100.00;100089.69;5078154;27;20064;-74
2024/01/15 09:34:24;;;;;;;13.57;6.15;;;;;;;1.31;100.00;100095.00;5098848;27;20040;-73
2024/01/15 09:36:50;;;;;;;15.93;6.68;;;;;;;1.45;100.00;100101.44;5077996;28;20032;-74
2024/01/15 09:39:15;;;;;;;14.93;6.50;;;;;;;1.45;100.00;100100.56;5087807;27;20076;-74
2024/01/15 09:41:42;;;;;;;15.65;7.22;;;;;;;1.61;100.00;100096.47;5076888;28;20564;-74
2024/01/15 09:44:08;;;;;;;17.98;8.60;;;;;;;1.58;100.00;100101.81;5095512;27;20035;-74
2024/01/15 09:46:35;;;;;;;14.75;7.25;;;;;;;1.60;100.00;100093.88;5101829;27;20036;-73
2024/01/15 09:49:05;;;;;;;11.52;6.75;;;;;;;1.73;100.00;100090.72;5079643;27;20032;-73
2024/01/15 09:51:31;;;;;;;13.50;7.32;;;;;;;1.71;100.00;100084.69;5088971;27;20044;-75
2024/01/15 09:53:58;;;;;;;15.38;7.28;;;;;;;1.90;100.00;100074.28;5066370;27;20066;-74
2024/01/15 09:56:24;;;;;;;20.98;7.38;;;;;;;1.98;100.00;100073.97;5093189;27;20229;-74
2024/01/15 09:58:52;;;;;;;12.57;6.60;;;;;;;1.99;100.00;100078.31;5096436;27;20052;-74
2024/01/15 10:01:20;;;;;;;16.70;7.07;;;;;;;2.04;100.00;100082.47;5087096;27;20036;-73
2024/01/15 10:03:46;;;;;;;20.23;7.53;;;;;;;2.19;100.00;100090.66;5068727;28;20753;-73
2024/01/15 10:06:17;;;;;;;14.38;5.53;;;;;;;2.42;100.00;100081.81;5079774;28;20035;-74
2024/01/15 10:08:48;;;;;;;14.03;5.63;;;;;;;2.62;100.00;100075.72;5079772;27;20083;-73
2024/01/15 10:11:13;;;;;;;9.07;3.92;;;;;;;2.33;100.00;100077.78;5096472;27;20515;-74
2024/01/15 10:13:39;;;;;;;17.70;3.50;;;;;;;2.17;100.00;100074.94;5096986;27;20141;-74
2024/01/15 10:16:05;;;;;;;12.55;3.55;;;;;;;2.08;100.00;100075.31;5074674;27;20038;-74
2024/01/15 10:18:32;;;;;;;10.10;2.72;;;;;;;1.95;100.00;100068.84;5093725;27;20102;-74
2024/01/15 10:20:58;;;;;;;7.75;3.08;;;;;;;2.01;100.00;100073.88;5092158;27;20024;-74
2024/01/15 10:23:24;;;;;;;13.35;3.33;;;;;;;1.94;100.00;100069.75;5073425;27;20890;-74
2024/01/15 10:25:51;;;;;;;10.50;2.83;;;;;;;1.95;100.00;100077.56;5086027;27;20123;-74
2024/01/15 10:28:19;;;;;;;10.65;3.00;;;;;;;1.86;100.00;100077.97;5077958;27;20044;-74
2024/01/15 10:30:44;;;;;;;6.78;2.20;;;;;;;1.82;100.00;100081.63;5088801;27;20040;-74
2024/01/15 10:33:11;;;;;;;12.52;2.20;;;;;;;2.07;100.00;100084.13;5093203;27;20039;-74
2024/01/15 10:35:37;;;;;;;2.08;1.60;;;;;;;2.28;100.00;100088.50;5084905;27;20032;-73
2024/01/15 10:38:05;;;;;;;3.97;1.85;;;;;;;2.52;100.00;100072.63;5092274;27;20030;-74
2024/01/15 10:40:31;;;;;;;4.82;1.75;;;;;;;2.33;100.00;100064.63;5091482;27;20052;-74
2024/01/15 10:42:57;;;;;;;3.83;1.80;;;;;;;2.37;100.00;100060.97;5074385;27;20035;-74
2024/01/15 10:45:23;;;;;;;10.65;2.20;;;;;;;2.30;100.00;100064.75;5094729;27;20024;-74
2024/01/15 10:47:49;;;;;;;4.30;2.03;;;;;;;2.41;100.00;100059.91;5078358;27;20300;-74
2024/01/15 10:50:15;;;;;;;11.40;1.85;;;;;;;2.33;100.00;100059.38;5090974;27;20043;-73
2024/01/15 10:52:43;;;;;;;10.80;2.63;;;;;;;2.38;100.00;100064.44;5095424;27;21364;-74
2024/01/15 10:55:09;;;;;;;6.13;2.35;;;;;;;2.52;100.00;100070.84;5072352;27;20030;-74
2024/01/15 10:57:38;;;;;;;12.05;2.55;;;;;;;2.48;100.00;100060.50;5073551;27;20036;-74
2024/01/15 11:00:05;;;;;;;11.65;2.78;;;;;;;2.41;100.00;100065.19;5091195;27;20020;-74
2024/01/15 11:02:36;;;;;;;9.70;3.13;;;;;;;2.34;100.00;100058.44;5071549;27;20048;-74
2024/01/15 11:05:02;;;;;;;10.40;4.50;;;;;;;2.43;100.00;100058.06;5070408;27;20135;-74
2024/01/15 11:07:30;;;;;;;9.30;4.30;;;;;;;2.30;100.00;100068.22;5092290;27;20036;-74
2024/01/15 11:09:56;;;;;;;8.65;4.72;;;;;;;2.42;100.00;100071.28;5071333;27;21194;-74